Time;durP1;ratioP1;P1;durP2;ratioP2;P2;SDS_P1;SDS_P2;PMS_P1;PMS_P2;Temp;Humidity;BMP_temperature;BMP_pressure;BME280_temperature;BME280_humidity;BME280_pressure;Samples;Min_cycle;Max_cycle;Signal;HPM_P1;HPM_P2
2021/08/31 00:00:06;;;;;;;0.13;0.13;;;11.80;99.90;;;;;;5088255;28;20156;-76
2021/08/31 00:02:32;;;;;;;0.10;0.10;;;11.80;99.90;;;;;;5070160;28;20183;-76
2021/08/31 00:04:58;;;;;;;0.25;0.25;;;11.70;99.90;;;;;;5070028;28;20196;-76
2021/08/31 00:07:24;;;;;;;0.98;0.98;;;11.70;99.90;;;;;;5069746;28;20267;-76
2021/08/31 00:09:50;;;;;;;0.30;0.30;;;11.70;99.90;;;;;;5088038;28;20314;-76
2021/08/31 00:12:16;;;;;;;0.10;0.10;;;11.80;99.90;;;;;;5087906;28;20271;-76
2021/08/31 00:14:42;;;;;;;0.20;0.20;;;11.80;99.90;;;;;;5088076;28;20159;-75
2021/08/31 00:17:09;;;;;;;0.50;0.50;;;11.80;99.90;;;;;;5069952;28;20624;-76
2021/08/31 00:19:35;;;;;;;0.30;0.30;;;11.70;99.90;;;;;;5069725;28;20168;-76
2021/08/31 00:22:02;;;;;;;3.13;1.88;;;11.70;99.90;;;;;;5087956;28;20574;-76
2021/08/31 00:24:28;;;;;;;1.38;1.27;;;11.60;99.90;;;;;;5087979;28;20164;-75
2021/08/31 00:26:54;;;;;;;0.20;0.20;;;11.70;99.90;;;;;;5069686;28;20321;-75
2021/08/31 00:29:20;;;;;;;0.25;0.25;;;11.60;99.90;;;;;;5069724;28;20172;-75
2021/08/31 00:31:46;;;;;;;0.57;0.57;;;11.60;99.90;;;;;;5069666;28;20223;-75
2021/08/31 00:34:11;;;;;;;1.00;0.90;;;11.60;99.90;;;;;;5087823;28;20153;-75
2021/08/31 00:36:37;;;;;;;0.22;0.22;;;11.60;99.90;;;;;;5087769;28;20187;-75
2021/08/31 00:39:03;;;;;;;0.10;0.10;;;11.50;99.90;;;;;;5087797;28;20171;-76
2021/08/31 00:41:29;;;;;;;0.35;0.35;;;11.50;99.90;;;;;;5090205;28;20164;-76
2021/08/31 00:43:55;;;;;;;0.43;0.43;;;11.50;99.90;;;;;;5073650;28;20191;-76
2021/08/31 00:46:22;;;;;;;0.22;0.22;;;11.50;99.90;;;;;;5091490;28;20175;-75
2021/08/31 00:48:52;;;;;;;0.32;0.32;;;11.40;99.90;;;;;;5073441;28;20184;-76
2021/08/31 00:51:23;;;;;;;0.08;0.08;;;11.40;99.90;;;;;;5073285;28;20269;-76
2021/08/31 00:53:50;;;;;;;0.25;0.25;;;11.30;99.90;;;;;;5091529;28;20152;-75
2021/08/31 00:56:16;;;;;;;0.22;0.22;;;11.20;99.90;;;;;;5091402;28;20163;-76
2021/08/31 00:58:43;;;;;;;0.52;0.47;;;11.10;99.90;;;;;;5091423;28;20153;-75
2021/08/31 01:01:10;;;;;;;0.30;0.28;;;11.00;99.90;;;;;;5073409;28;20168;-76
2021/08/31 01:03:37;;;;;;;0.15;0.15;;;10.90;99.90;;;;;;5091446;28;20156;-76
2021/08/31 01:06:04;;;;;;;0.40;0.40;;;11.00;99.90;;;;;;5091446;28;20167;-76
2021/08/31 01:08:30;;;;;;;0.30;0.30;;;10.90;99.90;;;;;;5073404;28;20188;-76
2021/08/31 01:11:01;;;;;;;0.52;0.40;;;11.00;99.90;;;;;;5092275;28;20247;-77
2021/08/31 01:13:34;;;;;;;0.10;0.10;;;11.00;99.90;;;;;;5074385;28;20505;-75
2021/08/31 01:16:01;;;;;;;0.98;0.98;;;10.90;99.90;;;;;;5073799;28;20233;-74
2021/08/31 01:18:28;;;;;;;0.30;0.30;;;10.80;99.90;;;;;;5073353;28;20207;-75
2021/08/31 01:20:57;;;;;;;1.33;1.23;;;10.90;99.90;;;;;;5091171;28;20152;-75
2021/08/31 01:23:25;;;;;;;0.73;0.73;;;10.90;99.90;;;;;;5073010;28;20258;-76
2021/08/31 01:25:56;;;;;;;0.90;0.75;;;10.90;99.90;;;;;;5090994;28;20156;-76
2021/08/31 01:28:25;;;;;;;1.25;1.25;;;10.90;99.90;;;;;;5072856;28;20210;-75
2021/08/31 01:30:51;;;;;;;0.40;0.40;;;10.90;99.90;;;;;;5090934;28;20160;-76
2021/08/31 01:33:19;;;;;;;1.08;0.68;;;11.00;99.90;;;;;;5072740;28;20191;-76
2021/08/31 01:35:45;;;;;;;0.52;0.40;;;11.00;99.90;;;;;;5090808;28;20163;-75
2021/08/31 01:38:11;;;;;;;0.32;0.32;;;11.00;99.90;;;;;;5090698;28;20192;-75
2021/08/31 01:40:36;;;;;;;0.22;0.22;;;11.00;99.90;;;;;;5089123;28;20164;-75
2021/08/31 01:43:02;;;;;;;0.20;0.20;;;10.90;99.90;;;;;;5089165;28;20262;-75
2021/08/31 01:45:47;;;;;;;0.80;0.63;;;10.80;99.90;;;;;;5072484;28;20172;-75
2021/08/31 01:48:13;;;;;;;0.10;0.10;;;10.90;99.90;;;;;;5090396;28;20192;-75
2021/08/31 01:50:40;;;;;;;0.90;0.90;;;10.70;99.90;;;;;;5090367;28;20182;-75
2021/08/31 01:53:06;;;;;;;2.05;0.95;;;10.70;99.90;;;;;;5089391;28;20242;-76
2021/08/31 01:55:33;;;;;;;0.65;0.65;;;10.70;99.90;;;;;;5072239;28;20186;-75
2021/08/31 01:57:59;;;;;;;1.15;1.15;;;10.70;99.90;;;;;;5072043;28;20192;-75
2021/08/31 02:00:25;;;;;;;0.10;0.10;;;10.80;99.90;;;;;;5090287;28;20164;-75
2021/08/31 02:02:52;;;;;;;0.75;0.63;;;10.70;99.90;;;;;;5090153;28;20168;-75
2021/08/31 02:05:17;;;;;;;0.75;0.57;;;10.60;99.90;;;;;;5072024;28;20663;-75
2021/08/31 02:07:44;;;;;;;4.63;0.52;;;10.60;99.90;;;;;;5089782;28;20193;-75
2021/08/31 02:10:10;;;;;;;0.20;0.20;;;10.50;99.90;;;;;;5071968;28;20179;-75
2021/08/31 02:12:36;;;;;;;1.23;0.95;;;10.50;99.90;;;;;;5089899;28;20180;-74
2021/08/31 02:15:04;;;;;;;0.15;0.15;;;10.60;99.90;;;;;;5088378;28;20203;-74
2021/08/31 02:17:29;;;;;;;0.22;0.22;;;10.60;99.90;;;;;;5089639;28;20251;-74
2021/08/31 02:19:55;;;;;;;0.30;0.30;;;10.70;99.90;;;;;;5088543;28;20168;-74
2021/08/31 02:22:21;;;;;;;0.20;0.20;;;10.70;99.90;;;;;;5089780;28;20156;-74
2021/08/31 02:24:47;;;;;;;0.93;0.85;;;10.80;99.90;;;;;;5089687;28;20253;-74
2021/08/31 02:27:13;;;;;;;0.10;0.10;;;10.70;99.90;;;;;;5089659;28;20196;-75
2021/08/31 02:29:39;;;;;;;5.00;1.55;;;10.70;99.90;;;;;;5089660;28;20163;-74
2021/08/31 02:32:05;;;;;;;0.28;0.28;;;10.60;99.90;;;;;;5071525;28;20218;-76
2021/08/31 02:34:32;;;;;;;0.20;0.20;;;10.60;99.90;;;;;;5088541;28;20188;-75
2021/08/31 02:36:58;;;;;;;0.20;0.20;;;10.50;99.90;;;;;;5071337;28;20196;-76
2021/08/31 02:39:25;;;;;;;0.47;0.43;;;10.60;99.90;;;;;;5089530;28;20244;-76
2021/08/31 02:41:51;;;;;;;0.10;0.10;;;10.50;99.90;;;;;;5089633;28;20203;-75
2021/08/31 02:44:17;;;;;;;0.38;0.38;;;10.50;99.90;;;;;;5089446;28;20255;-75
2021/08/31 02:46:43;;;;;;;0.28;0.28;;;10.50;99.90;;;;;;5087914;28;20259;-74
2021/08/31 02:49:09;;;;;;;0.38;0.38;;;10.50;99.90;;;;;;5071396;28;20183;-74
2021/08/31 02:51:35;;;;;;;0.20;0.20;;;10.50;99.90;;;;;;5084375;28;20225;-76
2021/08/31 02:54:01;;;;;;;1.77;1.02;;;10.50;99.90;;;;;;5051331;28;20240;-75
2021/08/31 02:56:27;;;;;;;0.98;0.95;;;10.40;99.90;;;;;;5069045;28;20188;-76
2021/08/31 02:58:52;;;;;;;0.65;0.65;;;10.20;99.90;;;;;;5069224;28;20161;-76
2021/08/31 03:01:30;;;;;;;0.68;0.68;;;10.30;99.90;;;;;;5069258;28;20153;-77
2021/08/31 03:03:57;;;;;;;0.13;0.13;;;10.30;99.90;;;;;;5068585;28;20144;-76
2021/08/31 03:06:24;;;;;;;0.28;0.28;;;10.30;99.90;;;;;;5069061;28;20188;-76
2021/08/31 03:08:50;;;;;;;1.15;1.05;;;10.20;99.90;;;;;;5051127;28;20172;-76
2021/08/31 03:11:17;;;;;;;0.17;0.17;;;10.10;99.90;;;;;;5068814;28;20176;-75
2021/08/31 03:13:43;;;;;;;0.20;0.20;;;10.20;99.90;;;;;;5050841;28;20196;-75
2021/08/31 03:16:08;;;;;;;0.22;0.22;;;10.20;99.90;;;;;;5068845;28;20161;-75
2021/08/31 03:18:34;;;;;;;0.43;0.43;;;10.30;99.90;;;;;;5068743;28;20192;-75
2021/08/31 03:21:00;;;;;;;0.10;0.10;;;10.30;99.90;;;;;;5068749;28;20157;-75
2021/08/31 03:23:27;;;;;;;1.58;0.43;;;10.20;99.90;;;;;;5051021;28;20172;-75
2021/08/31 03:25:53;;;;;;;0.10;0.10;;;10.30;99.90;;;;;;5067299;28;20180;-75
2021/08/31 03:28:19;;;;;;;0.10;0.10;;;10.30;99.90;;;;;;5068419;28;20263;-74
2021/08/31 03:30:45;;;;;;;0.98;0.88;;;10.20;99.90;;;;;;5068575;28;20171;-74
2021/08/31 03:33:11;;;;;;;0.73;0.55;;;10.20;99.90;;;;;;5067131;28;20326;-74
2021/08/31 03:35:37;;;;;;;1.63;1.52;;;10.30;99.90;;;;;;5068620;28;20188;-74
2021/08/31 03:38:03;;;;;;;0.25;0.25;;;10.30;99.90;;;;;;5067047;28;20192;-74
2021/08/31 03:40:29;;;;;;;0.43;0.43;;;10.30;99.90;;;;;;5050425;28;20211;-75
2021/08/31 03:42:54;;;;;;;0.20;0.20;;;10.20;99.90;;;;;;5068309;28;20164;-75
2021/08/31 03:45:20;;;;;;;0.57;0.40;;;10.20;99.90;;;;;;5050358;28;20176;-76
2021/08/31 03:47:46;;;;;;;0.20;0.20;;;10.20;99.90;;;;;;5068139;28;20203;-76
2021/08/31 03:50:13;;;;;;;0.20;0.20;;;10.10;99.90;;;;;;5068194;28;20164;-75
2021/08/31 03:52:39;;;;;;;4.18;0.63;;;10.20;99.90;;;;;;5082006;28;20234;-75
2021/08/31 03:55:05;;;;;;;1.40;1.40;;;10.30;99.90;;;;;;5070532;28;20171;-75
2021/08/31 03:57:31;;;;;;;0.20;0.20;;;10.30;99.90;;;;;;5088096;28;20206;-75
2021/08/31 03:59:57;;;;;;;0.32;0.32;;;10.40;99.90;;;;;;5088424;28;20152;-74
2021/08/31 04:02:23;;;;;;;0.77;0.77;;;10.40;99.90;;;;;;5070461;28;20182;-74
2021/08/31 04:04:49;;;;;;;0.40;0.38;;;10.40;99.90;;;;;;5088318;28;20223;-74
2021/08/31 04:07:16;;;;;;;0.40;0.40;;;10.50;99.90;;;;;;5070059;28;20195;-74
2021/08/31 04:09:42;;;;;;;0.25;0.25;;;10.40;99.90;;;;;;5088315;28;20188;-74
2021/08/31 04:12:09;;;;;;;0.68;0.68;;;10.40;99.90;;;;;;5069928;28;20200;-74
2021/08/31 04:14:35;;;;;;;0.20;0.20;;;10.40;99.90;;;;;;5088249;28;20160;-74
2021/08/31 04:17:01;;;;;;;0.13;0.13;;;10.40;99.90;;;;;;5073470;28;20266;-75
2021/08/31 04:19:27;;;;;;;0.10;0.10;;;10.40;99.90;;;;;;5092300;28;20211;-74
2021/08/31 04:21:53;;;;;;;0.93;0.93;;;10.50;99.90;;;;;;5092277;28;20160;-77
2021/08/31 04:24:19;;;;;;;0.65;0.65;;;10.50;99.90;;;;;;5092277;28;20164;-77
2021/08/31 04:26:45;;;;;;;0.15;0.15;;;10.50;99.90;;;;;;5073995;28;20225;-76
2021/08/31 04:29:11;;;;;;;0.10;0.10;;;10.50;99.90;;;;;;5074263;28;20600;-76
2021/08/31 04:31:37;;;;;;;1.23;1.15;;;10.60;99.90;;;;;;5092143;28;20192;-74
2021/08/31 04:34:03;;;;;;;1.02;0.63;;;10.60;99.90;;;;;;5092205;28;20156;-74
2021/08/31 04:36:29;;;;;;;0.17;0.17;;;10.60;99.90;;;;;;5074103;28;20179;-73
2021/08/31 04:38:55;;;;;;;0.22;0.22;;;10.60;99.90;;;;;;5092133;28;20239;-74
2021/08/31 04:41:21;;;;;;;0.20;0.20;;;10.70;99.90;;;;;;5073984;28;20175;-74
2021/08/31 04:43:47;;;;;;;0.73;0.73;;;10.70;99.90;;;;;;5092161;28;20160;-73
2021/08/31 04:46:13;;;;;;;0.30;0.30;;;10.80;99.90;;;;;;5074439;28;20275;-75
2021/08/31 04:48:39;;;;;;;0.20;0.20;;;10.80;99.90;;;;;;5092415;28;20156;-73
2021/08/31 04:51:05;;;;;;;0.75;0.55;;;10.90;99.90;;;;;;5091600;28;20156;-74
2021/08/31 04:53:31;;;;;;;0.10;0.10;;;10.90;99.90;;;;;;5091777;28;20592;-73
2021/08/31 04:55:57;;;;;;;0.35;0.35;;;10.80;99.90;;;;;;5091736;28;20163;-73
2021/08/31 04:58:23;;;;;;;0.55;0.55;;;10.80;99.90;;;;;;5073257;28;20278;-73
2021/08/31 05:00:49;;;;;;;0.40;0.40;;;11.00;99.90;;;;;;5091582;28;20156;-72
2021/08/31 05:03:15;;;;;;;0.10;0.10;;;11.10;99.90;;;;;;5073710;28;20171;-73
2021/08/31 05:05:42;;;;;;;0.20;0.20;;;11.20;99.90;;;;;;5073442;28;20172;-73
2021/08/31 05:08:09;;;;;;;0.63;0.38;;;11.40;99.90;;;;;;5091353;28;20192;-73
2021/08/31 05:10:38;;;;;;;0.10;0.10;;;11.60;99.90;;;;;;5073258;28;20171;-74
2021/08/31 05:13:04;;;;;;;0.30;0.30;;;11.90;99.90;;;;;;5091402;28;20237;-74
2021/08/31 05:15:32;;;;;;;1.05;1.00;;;12.50;99.90;;;;;;5091447;28;20152;-75
2021/08/31 05:17:59;;;;;;;0.60;0.57;;;13.10;99.90;;;;;;5073373;28;20539;-74
2021/08/31 05:20:27;;;;;;;0.40;0.40;;;13.90;99.90;;;;;;5091203;28;20152;-74
2021/08/31 05:22:54;;;;;;;0.55;0.55;;;15.00;99.90;;;;;;5073251;28;20168;-74
2021/08/31 05:25:20;;;;;;;0.32;0.32;;;15.30;99.90;;;;;;5091359;28;20160;-74
2021/08/31 05:27:47;;;;;;;0.73;0.73;;;14.60;99.90;;;;;;5072024;28;20206;-74
2021/08/31 05:30:13;;;;;;;1.40;0.70;;;14.10;99.90;;;;;;5072763;28;20168;-73
2021/08/31 05:32:39;;;;;;;0.80;0.47;;;14.50;99.90;;;;;;5090493;28;20188;-74
2021/08/31 05:35:05;;;;;;;0.95;0.95;;;15.10;99.90;;;;;;5072785;28;20259;-74
2021/08/31 05:37:31;;;;;;;1.65;0.38;;;15.10;99.90;;;;;;5072520;28;20206;-74
2021/08/31 05:39:57;;;;;;;0.38;0.38;;;14.50;99.90;;;;;;5090858;28;20242;-75
2021/08/31 05:42:23;;;;;;;0.47;0.47;;;14.20;99.90;;;;;;5080589;28;20199;-74
2021/08/31 05:44:49;;;;;;;0.45;0.45;;;14.00;99.90;;;;;;5095730;28;20548;-74
2021/08/31 05:47:15;;;;;;;1.42;1.20;;;13.50;99.90;;;;;;5110881;28;20266;-74
2021/08/31 05:49:41;;;;;;;0.20;0.20;;;13.30;99.90;;;;;;5092455;28;20199;-73
2021/08/31 05:52:08;;;;;;;0.20;0.20;;;13.60;99.90;;;;;;5097396;28;20223;-73
2021/08/31 05:54:34;;;;;;;1.60;1.50;;;13.80;99.90;;;;;;5072234;28;20174;-73
2021/08/31 05:57:09;;;;;;;1.27;0.80;;;13.90;99.90;;;;;;5090382;28;20218;-73
2021/08/31 05:59:39;;;;;;;0.10;0.10;;;14.20;99.90;;;;;;5090308;28;20154;-73
2021/08/31 06:02:09;;;;;;;0.17;0.17;;;14.30;99.90;;;;;;5090152;28;20649;-73
2021/08/31 06:04:39;;;;;;;0.90;0.90;;;13.60;99.90;;;;;;5072281;28;20172;-73
2021/08/31 06:07:09;;;;;;;0.40;0.40;;;13.70;99.90;;;;;;5090502;28;20187;-75
2021/08/31 06:09:37;;;;;;;1.77;1.30;;;13.70;99.90;;;;;;5090714;28;20223;-74
2021/08/31 06:12:11;;;;;;;0.52;0.47;;;13.70;99.90;;;;;;5090495;28;20229;-73
2021/08/31 06:14:41;;;;;;;0.10;0.10;;;13.30;99.90;;;;;;5090342;28;20271;-74
2021/08/31 06:17:07;;;;;;;0.75;0.75;;;13.20;99.90;;;;;;5090286;28;20191;-73
2021/08/31 06:19:34;;;;;;;0.55;0.55;;;13.00;99.90;;;;;;5090407;28;20163;-75
2021/08/31 06:22:00;;;;;;;0.43;0.28;;;13.00;99.90;;;;;;5071933;28;20176;-73
2021/08/31 06:24:27;;;;;;;0.17;0.17;;;12.90;99.90;;;;;;5071980;28;20168;-72
2021/08/31 06:26:53;;;;;;;0.22;0.22;;;13.00;99.90;;;;;;5072008;28;20263;-73
2021/08/31 06:29:19;;;;;;;0.30;0.30;;;13.10;99.90;;;;;;5090283;28;20233;-73
2021/08/31 06:31:45;;;;;;;0.68;0.65;;;13.10;99.90;;;;;;5090008;28;20192;-73
2021/08/31 06:34:10;;;;;;;0.10;0.10;;;13.30;99.90;;;;;;5089911;28;20167;-73
2021/08/31 06:36:36;;;;;;;1.90;1.75;;;13.30;99.90;;;;;;5072009;28;20168;-73
2021/08/31 06:39:02;;;;;;;10.57;1.05;;;13.30;99.90;;;;;;5089580;28;20160;-73
2021/08/31 06:41:28;;;;;;;0.65;0.60;;;13.50;99.90;;;;;;5071458;28;20163;-72
2021/08/31 06:43:55;;;;;;;0.38;0.38;;;13.40;99.90;;;;;;5071439;28;20548;-72
2021/08/31 06:46:21;;;;;;;0.30;0.30;;;13.20;99.90;;;;;;5089421;28;20176;-73
2021/08/31 06:48:47;;;;;;;0.60;0.60;;;13.20;99.90;;;;;;5089361;28;20214;-73
2021/08/31 06:51:14;;;;;;;7.88;1.40;;;13.20;99.90;;;;;;5071038;28;20194;-73
2021/08/31 06:53:41;;;;;;;0.10;0.10;;;13.50;99.90;;;;;;5071380;28;20183;-73
2021/08/31 06:56:08;;;;;;;0.22;0.22;;;13.60;99.90;;;;;;5089334;28;20239;-73
2021/08/31 06:58:34;;;;;;;0.73;0.73;;;13.70;99.90;;;;;;5071059;28;20217;-72
2021/08/31 07:01:00;;;;;;;2.47;1.15;;;14.00;99.90;;;;;;5071318;28;20270;-72
2021/08/31 07:03:26;;;;;;;0.38;0.38;;;14.10;99.90;;;;;;5089277;28;20160;-72
2021/08/31 07:05:52;;;;;;;0.80;0.80;;;14.20;99.90;;;;;;5071339;28;20183;-72
2021/08/31 07:08:18;;;;;;;0.65;0.65;;;14.30;99.90;;;;;;5103387;28;20199;-74
2021/08/31 07:10:44;;;;;;;0.43;0.43;;;14.20;99.90;;;;;;5102554;28;20203;-72
2021/08/31 07:13:10;;;;;;;0.55;0.55;;;14.20;99.90;;;;;;5108077;28;20187;-74
2021/08/31 07:15:37;;;;;;;0.10;0.10;;;14.20;99.90;;;;;;5097439;28;20245;-73
2021/08/31 07:18:03;;;;;;;0.20;0.20;;;14.30;99.90;;;;;;5108801;28;20174;-72
2021/08/31 07:20:29;;;;;;;0.32;0.25;;;14.40;99.90;;;;;;5106633;28;20224;-72
2021/08/31 07:22:55;;;;;;;2.30;1.55;;;14.50;99.90;;;;;;5087285;28;20263;-73
2021/08/31 07:25:21;;;;;;;0.98;0.75;;;14.60;99.90;;;;;;5090265;28;20195;-73
2021/08/31 07:27:47;;;;;;;0.50;0.50;;;14.50;99.90;;;;;;5089167;28;20666;-70
2021/08/31 07:30:13;;;;;;;0.70;0.70;;;14.60;99.90;;;;;;5085829;28;20336;-72
2021/08/31 07:32:40;;;;;;;0.63;0.63;;;14.70;99.90;;;;;;5108698;28;20223;-72
2021/08/31 07:35:08;;;;;;;0.50;0.32;;;15.00;99.90;;;;;;5109017;28;20159;-71
2021/08/31 07:37:34;;;;;;;0.50;0.50;;;15.30;99.90;;;;;;5107376;28;20201;-71
2021/08/31 07:40:00;;;;;;;0.80;0.57;;;15.50;99.90;;;;;;5092802;28;20247;-73
2021/08/31 07:42:26;;;;;;;0.10;0.10;;;15.50;99.90;;;;;;5107166;28;20185;-74
2021/08/31 07:44:52;;;;;;;0.52;0.50;;;15.50;99.90;;;;;;5092462;28;20194;-73
2021/08/31 07:47:18;;;;;;;0.30;0.30;;;15.70;99.90;;;;;;5108304;28;20256;-73
2021/08/31 07:49:44;;;;;;;0.55;0.55;;;15.90;99.90;;;;;;5089891;28;20216;-73
2021/08/31 07:52:11;;;;;;;1.35;0.93;;;16.10;99.90;;;;;;5079401;28;20222;-73
2021/08/31 07:54:37;;;;;;;0.45;0.45;;;16.40;99.90;;;;;;5103941;28;20159;-72
2021/08/31 07:57:03;;;;;;;0.85;0.63;;;16.30;99.90;;;;;;5075867;28;20177;-72
2021/08/31 07:59:29;;;;;;;0.40;0.40;;;16.50;99.90;;;;;;5098631;28;20187;-72
2021/08/31 08:01:55;;;;;;;0.32;0.32;;;16.50;99.90;;;;;;5093398;28;20160;-71
2021/08/31 08:04:21;;;;;;;1.13;1.10;;;16.60;99.90;;;;;;5104104;28;20210;-71
2021/08/31 08:06:47;;;;;;;0.20;0.20;;;17.00;99.90;;;;;;5087743;28;20255;-72
2021/08/31 08:09:13;;;;;;;0.38;0.32;;;17.00;99.90;;;;;;5102994;28;20237;-71
2021/08/31 08:11:39;;;;;;;1.00;1.00;;;17.20;99.90;;;;;;5067571;28;20200;-72
2021/08/31 08:14:05;;;;;;;0.85;0.85;;;17.50;99.90;;;;;;5080556;28;20183;-72
2021/08/31 08:16:31;;;;;;;0.77;0.77;;;17.40;99.90;;;;;;5092069;28;20286;-72
2021/08/31 08:18:57;;;;;;;1.88;0.88;;;17.40;99.90;;;;;;5105810;28;20255;-72
2021/08/31 08:21:23;;;;;;;6.00;1.85;;;16.70;99.90;;;;;;5106303;28;20179;-72
2021/08/31 08:23:50;;;;;;;0.20;0.20;;;16.60;99.90;;;;;;5106932;28;20148;-72
2021/08/31 08:26:16;;;;;;;0.47;0.40;;;16.60;99.90;;;;;;5106544;28;20166;-72
2021/08/31 08:28:42;;;;;;;2.10;0.52;;;16.80;99.90;;;;;;5089843;28;20246;-72
2021/08/31 08:31:08;;;;;;;0.32;0.32;;;16.70;99.90;;;;;;5108138;28;20593;-72
2021/08/31 08:33:34;;;;;;;0.30;0.30;;;16.90;99.90;;;;;;5089741;28;20195;-72
2021/08/31 08:36:02;;;;;;;0.20;0.20;;;17.40;99.90;;;;;;5108151;28;20151;-73
2021/08/31 08:38:28;;;;;;;1.15;0.65;;;18.10;99.90;;;;;;5090001;28;20631;-73
2021/08/31 08:40:57;;;;;;;0.25;0.25;;;18.80;99.90;;;;;;5089713;28;20206;-72
2021/08/31 08:43:23;;;;;;;0.38;0.38;;;19.10;99.90;;;;;;5089971;28;20221;-73
2021/08/31 08:45:50;;;;;;;0.20;0.20;;;19.10;99.90;;;;;;5089897;28;20167;-73
2021/08/31 08:48:21;;;;;;;0.15;0.15;;;19.10;99.90;;;;;;5108215;28;20219;-73
2021/08/31 08:50:48;;;;;;;0.10;0.10;;;18.70;99.90;;;;;;5108021;28;20194;-73
2021/08/31 08:53:16;;;;;;;0.20;0.20;;;18.90;99.90;;;;;;5108586;28;20222;-73
2021/08/31 08:55:42;;;;;;;0.10;0.10;;;19.10;99.90;;;;;;5128521;28;20166;-73
2021/08/31 08:58:08;;;;;;;8.18;0.73;;;19.20;99.90;;;;;;5128460;28;20151;-73
2021/08/31 09:01:03;;;;;;;0.15;0.15;;;18.70;99.90;;;;;;5128335;28;20224;-72
2021/08/31 09:03:32;;;;;;;0.20;0.20;;;17.80;99.90;;;;;;5130844;28;20162;-74
2021/08/31 09:06:05;;;;;;;0.32;0.32;;;17.60;99.90;;;;;;5132240;28;20183;-73
2021/08/31 09:08:31;;;;;;;0.10;0.10;;;17.90;99.90;;;;;;5132004;28;20163;-73
2021/08/31 09:10:57;;;;;;;1.13;1.08;;;18.60;99.90;;;;;;5132084;28;20275;-73
2021/08/31 09:13:23;;;;;;;0.28;0.28;;;19.50;99.90;;;;;;5131947;28;20194;-73
2021/08/31 09:15:49;;;;;;;0.50;0.50;;;19.70;99.90;;;;;;5131877;28;20159;-73
2021/08/31 09:18:19;;;;;;;0.45;0.45;;;19.50;99.90;;;;;;5131985;28;20169;-72
2021/08/31 09:21:04;;;;;;;0.22;0.22;;;19.50;99.90;;;;;;5113309;28;20201;-71
2021/08/31 09:23:35;;;;;;;0.40;0.25;;;19.70;99.90;;;;;;5113439;28;20159;-75
2021/08/31 09:26:08;;;;;;;0.47;0.47;;;19.70;99.90;;;;;;5113305;28;20177;-75
2021/08/31 09:28:40;;;;;;;3.95;0.50;;;20.20;99.90;;;;;;5113364;28;20158;-75
2021/08/31 09:31:17;;;;;;;0.10;0.10;;;20.70;99.90;;;;;;5113199;28;20182;-76
2021/08/31 09:33:49;;;;;;;1.00;0.25;;;21.10;99.90;;;;;;5131814;28;20528;-76
2021/08/31 09:36:25;;;;;;;0.20;0.20;;;21.20;99.90;;;;;;5131735;28;20154;-76
2021/08/31 09:38:58;;;;;;;0.35;0.35;;;20.80;99.90;;;;;;5113195;28;20162;-76
2021/08/31 09:41:31;;;;;;;0.05;0.05;;;20.80;99.90;;;;;;5113186;28;20265;-77
2021/08/31 09:44:00;;;;;;;0.80;0.80;;;20.40;99.90;;;;;;5131360;28;20184;-75
2021/08/31 09:46:47;;;;;;;1.88;1.08;;;19.60;99.90;;;;;;5131308;28;20155;-75
2021/08/31 09:49:33;;;;;;;0.30;0.30;;;19.70;99.90;;;;;;5113022;28;20257;-75
2021/08/31 09:52:02;;;;;;;0.20;0.20;;;20.20;99.90;;;;;;5112477;28;20289;-75
2021/08/31 09:54:27;;;;;;;0.43;0.43;;;20.70;99.90;;;;;;5112572;28;20684;-76
2021/08/31 09:56:53;;;;;;;0.45;0.45;;;21.00;99.90;;;;;;5131107;28;20159;-75
2021/08/31 09:59:23;;;;;;;0.10;0.10;;;21.00;99.90;;;;;;5112603;28;20228;-76
2021/08/31 10:01:52;;;;;;;0.30;0.30;;;21.10;99.90;;;;;;5131137;28;20195;-75
2021/08/31 10:04:19;;;;;;;0.13;0.13;;;21.30;99.90;;;;;;5130986;28;20182;-76
2021/08/31 10:06:46;;;;;;;0.25;0.25;;;21.70;99.90;;;;;;5112720;28;20162;-77
2021/08/31 10:09:14;;;;;;;15.20;1.13;;;21.70;99.90;;;;;;5130909;28;20196;-76
2021/08/31 10:11:39;;;;;;;0.17;0.17;;;21.50;99.90;;;;;;5112328;28;20664;-76
2021/08/31 10:14:07;;;;;;;0.20;0.20;;;21.10;99.90;;;;;;5130448;28;20174;-75
2021/08/31 10:16:34;;;;;;;0.30;0.30;;;21.10;99.90;;;;;;5112434;28;20646;-75
2021/08/31 10:19:00;;;;;;;0.22;0.10;;;20.60;99.90;;;;;;5113575;28;20196;-75
2021/08/31 10:21:28;;;;;;;0.08;0.08;;;20.40;99.90;;;;;;5132107;28;20228;-75
2021/08/31 10:23:54;;;;;;;0.15;0.10;;;20.40;99.90;;;;;;5113115;28;20639;-74
2021/08/31 10:26:28;;;;;;;0.10;0.10;;;20.50;99.90;;;;;;5112028;28;20170;-74
2021/08/31 10:29:16;;;;;;;7.95;0.55;;;20.80;99.90;;;;;;5111710;28;20201;-74
2021/08/31 10:31:47;;;;;;;0.22;0.22;;;21.30;99.90;;;;;;5130161;28;20259;-74
2021/08/31 10:34:31;;;;;;;0.22;0.22;;;20.90;99.90;;;;;;5130427;28;20154;-75
2021/08/31 10:37:07;;;;;;;0.13;0.13;;;21.40;99.90;;;;;;5130208;28;20192;-75
2021/08/31 10:39:49;;;;;;;0.10;0.10;;;21.60;99.90;;;;;;5111722;28;20239;-75
2021/08/31 10:42:24;;;;;;;0.10;0.10;;;21.90;99.90;;;;;;5111451;28;20212;-76
2021/08/31 10:44:54;;;;;;;0.57;0.57;;;22.20;99.90;;;;;;5130152;28;20158;-76
2021/08/31 10:47:33;;;;;;;0.30;0.30;;;22.50;99.90;;;;;;5111562;28;20171;-76
2021/08/31 10:50:00;;;;;;;0.22;0.17;;;22.20;99.90;;;;;;5111368;28;20227;-76
2021/08/31 10:52:34;;;;;;;0.30;0.30;;;22.50;99.90;;;;;;5129681;28;20252;-76
2021/08/31 10:55:01;;;;;;;0.10;0.10;;;24.50;99.90;;;;;;5111472;28;20176;-72
2021/08/31 10:57:36;;;;;;;0.20;0.20;;;26.60;99.90;;;;;;5111381;28;20170;-72
2021/08/31 11:00:05;;;;;;;0.15;0.15;;;27.00;99.90;;;;;;5111317;28;20249;-72
2021/08/31 11:02:46;;;;;;;0.32;0.20;;;24.60;99.90;;;;;;5129789;28;20158;-73
2021/08/31 11:05:18;;;;;;;0.00;0.00;;;25.10;99.90;;;;;;5111457;28;20181;-73
2021/08/31 11:07:45;;;;;;;0.10;0.10;;;25.70;99.90;;;;;;5111217;28;20169;-72
2021/08/31 11:10:19;;;;;;;0.20;0.20;;;25.00;99.90;;;;;;5129574;28;20198;-73
2021/08/31 11:12:46;;;;;;;0.00;0.00;;;24.60;99.90;;;;;;5129526;28;20193;-73
2021/08/31 11:15:19;;;;;;;1.48;0.28;;;24.50;99.90;;;;;;5129278;28;20150;-73
2021/08/31 11:17:47;;;;;;;0.03;0.03;;;24.20;99.90;;;;;;5129525;28;20154;-72
2021/08/31 11:20:19;;;;;;;0.00;0.00;;;23.70;99.90;;;;;;5125690;28;20190;-72
2021/08/31 11:22:51;;;;;;;0.10;0.10;;;23.20;99.90;;;;;;5129392;28;20173;-72
2021/08/31 11:25:40;;;;;;;0.22;0.10;;;23.00;99.90;;;;;;5109998;28;20169;-72
2021/08/31 11:28:18;;;;;;;0.20;0.20;;;25.20;99.90;;;;;;5111107;28;20200;-72
2021/08/31 11:30:50;;;;;;;0.10;0.10;;;26.60;99.90;;;;;;5129149;28;20196;-72
2021/08/31 11:33:25;;;;;;;0.22;0.22;;;27.80;99.90;;;;;;5129257;28;20190;-72
2021/08/31 11:35:54;;;;;;;0.10;0.10;;;28.50;99.90;;;;;;5111039;28;20162;-72
2021/08/31 11:38:42;;;;;;;0.00;0.00;;;26.90;99.90;;;;;;5110773;28;20163;-72
2021/08/31 11:41:18;;;;;;;0.08;0.08;;;24.70;99.90;;;;;;5115720;28;20678;-72
2021/08/31 11:43:49;;;;;;;0.05;0.05;;;24.00;99.90;;;;;;5110972;28;20184;-72
2021/08/31 11:46:29;;;;;;;0.10;0.10;;;24.00;99.90;;;;;;5129351;28;20165;-72
2021/08/31 11:49:18;;;;;;;0.10;0.10;;;24.00;99.90;;;;;;5110882;28;20166;-71
2021/08/31 11:52:07;;;;;;;0.00;0.00;;;25.50;99.90;;;;;;5110304;28;20214;-71
2021/08/31 11:54:39;;;;;;;0.10;0.10;;;27.10;99.90;;;;;;5129122;28;20234;-71
2021/08/31 11:57:07;;;;;;;0.10;0.10;;;27.90;99.90;;;;;;5128989;28;20188;-71
2021/08/31 11:59:39;;;;;;;0.10;0.10;;;27.10;99.90;;;;;;5128979;28;20271;-71
2021/08/31 12:02:28;;;;;;;0.20;0.20;;;26.20;99.90;;;;;;5128867;28;20222;-71
2021/08/31 12:04:54;;;;;;;0.40;0.40;;;26.90;99.90;;;;;;5128978;28;20150;-71
2021/08/31 12:07:28;;;;;;;0.03;0.03;;;25.60;99.90;;;;;;5110559;28;20172;-71
2021/08/31 12:10:02;;;;;;;0.05;0.05;;;25.50;99.90;;;;;;5110303;28;20219;-70
2021/08/31 12:12:29;;;;;;;0.10;0.10;;;25.30;99.90;;;;;;5128942;28;20154;-70
2021/08/31 12:14:56;;;;;;;0.00;0.00;;;24.90;99.90;;;;;;5110594;28;20163;-71
2021/08/31 12:17:32;;;;;;;0.20;0.20;;;24.30;99.90;;;;;;5128795;28;20211;-72
2021/08/31 12:20:11;;;;;;;0.30;0.15;;;23.30;99.90;;;;;;5128868;28;20197;-71
2021/08/31 12:22:40;;;;;;;0.00;0.00;;;23.10;99.90;;;;;;5110403;28;20204;-73
2021/08/31 12:25:08;;;;;;;0.00;0.00;;;22.60;99.90;;;;;;5128547;28;20180;-72
2021/08/31 12:27:38;;;;;;;0.00;0.00;;;22.30;99.90;;;;;;5128451;28;20159;-72
2021/08/31 12:30:05;;;;;;;0.17;0.17;;;22.60;99.90;;;;;;5128326;28;20182;-73
2021/08/31 12:32:32;;;;;;;0.20;0.20;;;22.50;99.90;;;;;;5110100;28;20163;-73
2021/08/31 12:35:22;;;;;;;0.08;0.08;;;22.50;99.90;;;;;;5110038;28;20170;-73
2021/08/31 12:38:04;;;;;;;0.00;0.00;;;22.80;99.90;;;;;;5113093;28;20163;-73
2021/08/31 12:40:30;;;;;;;0.08;0.08;;;22.80;99.90;;;;;;5132565;28;20321;-70
2021/08/31 12:43:09;;;;;;;0.00;0.00;;;22.70;99.90;;;;;;5113914;28;20205;-70
2021/08/31 12:45:36;;;;;;;0.08;0.08;;;22.60;99.90;;;;;;5119487;28;20212;-72
2021/08/31 12:48:04;;;;;;;0.00;0.00;;;22.70;99.90;;;;;;5127552;28;20170;-70
2021/08/31 12:50:31;;;;;;;0.00;0.00;;;22.80;99.90;;;;;;5106648;28;20202;-72
2021/08/31 12:53:08;;;;;;;0.00;0.00;;;23.00;99.90;;;;;;5088275;28;20265;-72